Time;durP1;ratioP1;P1;durP2;ratioP2;P2;SDS_P1;SDS_P2;PMS_P1;PMS_P2;Temp;Humidity;BMP_temperature;BMP_pressure;BME280_temperature;BME280_humidity;BME280_pressure;Samples;Min_cycle;Max_cycle;Signal;HPM_P1;HPM_P2
2022/07/26 00:00:02;;;;;;;2.10;1.00;;;;;;;;;;5029447;28;20524;-58
2022/07/26 00:02:50;;;;;;;3.10;1.27;;;;;;;;;;5032372;28;20022;-58
2022/07/26 00:05:25;;;;;;;2.45;1.27;;;;;;;;;;5030847;28;20040;-58
2022/07/26 00:08:10;;;;;;;2.97;1.60;;;;;;;;;;5030662;28;20040;-58
2022/07/26 00:10:55;;;;;;;2.38;1.00;;;;;;;;;;5029580;28;20112;-58
2022/07/26 00:13:27;;;;;;;4.25;1.40;;;;;;;;;;5034471;28;20029;-58
2022/07/26 00:15:56;;;;;;;1.67;1.10;;;;;;;;;;5051819;28;20406;-58
2022/07/26 00:18:32;;;;;;;3.88;1.02;;;;;;;;;;5051670;28;20017;-58
2022/07/26 00:21:07;;;;;;;2.38;1.10;;;;;;;;;;5050749;28;20033;-58
2022/07/26 00:23:39;;;;;;;1.35;0.75;;;;;;;;;;5050619;28;20078;-58
2022/07/26 00:26:15;;;;;;;2.33;0.98;;;;;;;;;;5050371;28;20032;-58
2022/07/26 00:31:39;;;;;;;4.03;1.17;;;;;;;;;;5050659;28;20033;-58
2022/07/26 00:34:11;;;;;;;4.00;0.80;;;;;;;;;;5051922;28;20516;-58
2022/07/26 00:36:42;;;;;;;1.70;0.75;;;;;;;;;;5034046;28;20124;-58
2022/07/26 00:39:12;;;;;;;1.70;0.88;;;;;;;;;;5050474;28;20483;-58
2022/07/26 00:41:45;;;;;;;1.88;0.98;;;;;;;;;;5048632;28;20497;-58
2022/07/26 00:44:12;;;;;;;4.60;1.30;;;;;;;;;;5051761;28;20051;-58
2022/07/26 00:46:46;;;;;;;3.08;0.80;;;;;;;;;;5051510;28;20118;-58
2022/07/26 00:49:15;;;;;;;1.42;0.85;;;;;;;;;;5051591;28;20025;-58
2022/07/26 00:51:44;;;;;;;2.00;0.88;;;;;;;;;;5050629;28;20032;-58
2022/07/26 00:54:36;;;;;;;4.60;0.95;;;;;;;;;;5033913;28;20029;-58
2022/07/26 00:57:07;;;;;;;1.42;0.80;;;;;;;;;;5051475;28;20110;-58
2022/07/26 00:59:43;;;;;;;5.38;1.10;;;;;;;;;;5049860;28;20541;-58
2022/07/26 01:02:10;;;;;;;2.47;1.10;;;;;;;;;;5048804;28;20074;-58
2022/07/26 01:04:37;;;;;;;2.60;1.10;;;;;;;;;;5033703;28;20462;-58
2022/07/26 01:07:06;;;;;;;1.95;0.98;;;;;;;;;;5050258;28;20029;-58
2022/07/26 01:09:47;;;;;;;2.15;0.88;;;;;;;;;;5049760;28;20148;-58
2022/07/26 01:12:17;;;;;;;3.00;0.80;;;;;;;;;;5049673;28;20060;-58
2022/07/26 01:14:43;;;;;;;4.15;0.80;;;;;;;;;;5036205;28;20331;-58
2022/07/26 01:17:30;;;;;;;2.15;1.05;;;;;;;;;;5029637;28;20037;-58
2022/07/26 01:20:07;;;;;;;3.53;1.05;;;;;;;;;;5030649;28;20021;-58
2022/07/26 01:22:36;;;;;;;2.45;1.00;;;;;;;;;;5031189;28;20028;-58
2022/07/26 01:25:09;;;;;;;1.65;0.80;;;;;;;;;;5013972;28;20531;-58
2022/07/26 01:27:38;;;;;;;4.57;1.25;;;;;;;;;;5030187;28;20060;-58
2022/07/26 01:30:07;;;;;;;2.25;1.02;;;;;;;;;;5030436;28;20505;-58
2022/07/26 01:32:45;;;;;;;1.35;0.65;;;;;;;;;;5031289;28;20391;-58
2022/07/26 01:35:21;;;;;;;1.65;1.13;;;;;;;;;;5031425;28;20045;-58
2022/07/26 01:37:52;;;;;;;1.70;0.93;;;;;;;;;;5029669;28;20387;-58
2022/07/26 01:40:21;;;;;;;1.58;0.70;;;;;;;;;;5030587;28;20029;-58
2022/07/26 01:42:54;;;;;;;2.80;1.00;;;;;;;;;;5030731;28;20040;-58
2022/07/26 01:45:25;;;;;;;2.72;1.27;;;;;;;;;;5031265;28;20034;-58
2022/07/26 01:47:58;;;;;;;2.08;1.13;;;;;;;;;;5030926;28;20037;-58
2022/07/26 01:50:31;;;;;;;2.03;1.10;;;;;;;;;;5028864;28;20033;-58
2022/07/26 01:53:03;;;;;;;1.60;0.90;;;;;;;;;;5032973;28;20017;-58
2022/07/26 01:55:38;;;;;;;2.90;1.02;;;;;;;;;;5034733;28;20026;-58
2022/07/26 01:58:12;;;;;;;2.40;0.93;;;;;;;;;;5034692;28;20021;-58
2022/07/26 02:00:45;;;;;;;1.48;0.80;;;;;;;;;;5033609;28;20390;-58
2022/07/26 02:03:19;;;;;;;1.65;1.00;;;;;;;;;;5034666;28;20018;-58
2022/07/26 02:05:48;;;;;;;2.40;1.10;;;;;;;;;;5033309;28;20223;-58
2022/07/26 02:08:14;;;;;;;1.85;0.90;;;;;;;;;;5034079;28;20059;-58
2022/07/26 02:11:01;;;;;;;1.75;1.10;;;;;;;;;;5033072;28;20040;-58
2022/07/26 02:13:39;;;;;;;4.63;1.23;;;;;;;;;;5038682;28;20370;-58
2022/07/26 02:16:14;;;;;;;4.88;2.03;;;;;;;;;;5052938;28;20102;-58
2022/07/26 02:18:49;;;;;;;2.65;1.13;;;;;;;;;;5054318;28;20033;-58
2022/07/26 02:21:21;;;;;;;1.63;0.88;;;;;;;;;;5049884;28;20116;-58
2022/07/26 02:23:53;;;;;;;1.85;0.85;;;;;;;;;;5052483;28;20478;-58
2022/07/26 02:26:25;;;;;;;1.92;1.00;;;;;;;;;;5053956;28;20032;-58
2022/07/26 02:28:57;;;;;;;2.10;0.90;;;;;;;;;;5054030;28;20021;-58
2022/07/26 02:31:26;;;;;;;3.47;1.17;;;;;;;;;;5051771;28;20478;-58
2022/07/26 02:33:58;;;;;;;2.38;1.00;;;;;;;;;;5053550;28;20359;-58
2022/07/26 02:36:27;;;;;;;1.92;0.85;;;;;;;;;;5053884;28;20039;-58
2022/07/26 02:38:58;;;;;;;1.65;0.90;;;;;;;;;;5052314;28;20048;-58
2022/07/26 02:41:30;;;;;;;1.90;1.10;;;;;;;;;;5051391;28;20048;-58
2022/07/26 02:44:18;;;;;;;1.95;0.93;;;;;;;;;;5054455;28;20183;-58
2022/07/26 02:46:56;;;;;;;;;;;;;;;;;;;;;
2022/07/26 02:49:33;;;;;;;;;;;;;;;;;;;;;
2022/07/26 02:52:02;;;;;;;1.50;0.80;;;;;;;;;;5052728;28;20020;-58
2022/07/26 02:54:38;;;;;;;1.88;0.90;;;;;;;;;;5052312;28;20470;-58
2022/07/26 02:57:09;;;;;;;1.05;0.55;;;;;;;;;;5053346;28;21462;-58
2022/07/26 02:59:38;;;;;;;4.22;0.95;;;;;;;;;;5053285;28;20497;-58
2022/07/26 03:02:10;;;;;;;1.17;0.70;;;;;;;;;;5052700;28;20466;-58
2022/07/26 03:04:45;;;;;;;2.30;1.10;;;;;;;;;;5052947;28;20581;-58
2022/07/26 03:07:17;;;;;;;2.50;0.73;;;;;;;;;;5052645;28;20509;-58
2022/07/26 03:09:48;;;;;;;1.17;0.60;;;;;;;;;;5053191;28;20080;-58
2022/07/26 03:12:20;;;;;;;1.88;0.98;;;;;;;;;;5052942;28;20025;-58
2022/07/26 03:15:04;;;;;;;1.73;0.77;;;;;;;;;;5037544;28;20021;-58
2022/07/26 03:17:46;;;;;;;1.27;0.70;;;;;;;;;;5009293;28;20132;-58
2022/07/26 03:20:21;;;;;;;2.95;1.25;;;;;;;;;;5032377;28;20373;-58
2022/07/26 03:23:08;;;;;;;1.05;0.55;;;;;;;;;;5031699;28;20577;-58
2022/07/26 03:25:36;;;;;;;3.17;1.00;;;;;;;;;;5032775;28;20033;-58
2022/07/26 03:31:01;;;;;;;1.85;0.98;;;;;;;;;;5026680;28;20041;-58
2022/07/26 03:33:36;;;;;;;1.50;0.82;;;;;;;;;;5033849;28;20455;-58
2022/07/26 03:36:14;;;;;;;2.80;1.08;;;;;;;;;;5032468;28;20124;-58
2022/07/26 03:38:41;;;;;;;2.40;0.90;;;;;;;;;;5043292;28;20072;-58
2022/07/26 03:41:26;;;;;;;1.85;1.15;;;;;;;;;;5032270;28;20025;-58
2022/07/26 03:43:59;;;;;;;1.60;0.82;;;;;;;;;;5031553;28;20582;-58
2022/07/26 03:46:25;;;;;;;1.50;0.73;;;;;;;;;;5034143;28;20037;-58
2022/07/26 03:48:56;;;;;;;1.40;0.80;;;;;;;;;;5052164;28;20060;-58
2022/07/26 03:51:43;;;;;;;2.47;0.68;;;;;;;;;;5051637;28;20029;-58
2022/07/26 03:54:27;;;;;;;2.63;1.38;;;;;;;;;;5052696;28;20067;-58
2022/07/26 03:56:57;;;;;;;1.10;0.63;;;;;;;;;;5042988;28;20072;-58
2022/07/26 03:59:24;;;;;;;1.05;0.70;;;;;;;;;;5014478;28;20033;-57
2022/07/26 04:01:56;;;;;;;4.07;1.52;;;;;;;;;;5030020;28;20037;-58
2022/07/26 04:04:29;;;;;;;2.20;1.15;;;;;;;;;;5031025;28;20517;-58
2022/07/26 04:07:02;;;;;;;1.77;0.90;;;;;;;;;;5019582;28;20025;-58
2022/07/26 04:09:40;;;;;;;2.03;1.13;;;;;;;;;;5032113;28;20029;-58
2022/07/26 04:12:09;;;;;;;6.18;1.05;;;;;;;;;;5029908;28;20080;-58
2022/07/26 04:14:41;;;;;;;1.80;1.00;;;;;;;;;;5045428;28;20047;-58
2022/07/26 04:17:27;;;;;;;2.50;1.20;;;;;;;;;;5044935;28;20466;-58
2022/07/26 04:19:58;;;;;;;2.17;1.08;;;;;;;;;;5050127;28;20457;-58
2022/07/26 04:22:25;;;;;;;4.40;0.98;;;;;;;;;;5050277;28;20099;-58
2022/07/26 04:24:57;;;;;;;1.52;0.75;;;;;;;;;;5052108;28;20033;-58
2022/07/26 04:27:40;;;;;;;2.20;1.10;;;;;;;;;;5051146;28;20094;-58
2022/07/26 04:30:20;;;;;;;2.85;1.10;;;;;;;;;;5048506;28;20427;-58
2022/07/26 04:32:51;;;;;;;2.42;1.60;;;;;;;;;;5051500;28;20037;-58
2022/07/26 04:35:34;;;;;;;1.50;0.82;;;;;;;;;;5051883;28;20025;-58
2022/07/26 04:38:15;;;;;;;1.73;1.10;;;;;;;;;;5036161;28;20030;-58
2022/07/26 04:41:02;;;;;;;1.80;1.08;;;;;;;;;;5030078;28;20025;-58
2022/07/26 04:43:34;;;;;;;2.75;1.45;;;;;;;;;;5030497;28;20021;-58
2022/07/26 04:46:09;;;;;;;2.53;1.00;;;;;;;;;;5044017;28;20108;-58
2022/07/26 04:48:53;;;;;;;2.15;1.10;;;;;;;;;;5051837;28;20025;-58
2022/07/26 04:51:31;;;;;;;2.15;1.05;;;;;;;;;;5049618;28;20035;-58
2022/07/26 04:54:19;;;;;;;2.08;1.27;;;;;;;;;;5051635;28;20029;-58
2022/07/26 04:57:03;;;;;;;2.38;1.17;;;;;;;;;;5031662;28;20037;-58
2022/07/26 04:59:51;;;;;;;6.13;1.25;;;;;;;;;;5031931;28;20088;-58
2022/07/26 05:02:25;;;;;;;5.57;1.25;;;;;;;;;;5030589;28;20403;-58
2022/07/26 05:04:53;;;;;;;2.40;0.98;;;;;;;;;;5034074;28;20045;-58
2022/07/26 05:07:23;;;;;;;2.40;1.90;;;;;;;;;;5050250;28;20029;-58
2022/07/26 05:10:06;;;;;;;1.70;0.95;;;;;;;;;;5049544;28;20087;-58
2022/07/26 05:12:40;;;;;;;2.20;1.10;;;;;;;;;;5049329;28;20025;-58
2022/07/26 05:15:16;;;;;;;2.13;1.40;;;;;;;;;;5037024;28;20167;-57
2022/07/26 05:17:52;;;;;;;2.42;1.50;;;;;;;;;;5048033;28;20037;-58
2022/07/26 05:20:28;;;;;;;;;;;;;;;;;;;;;
2022/07/26 05:22:54;;;;;;;2.75;1.70;;;;;;;;;;5030801;28;20036;-58
2022/07/26 05:25:36;;;;;;;4.65;1.52;;;;;;;;;;5030878;28;20037;-58
2022/07/26 05:28:14;;;;;;;2.05;1.30;;;;;;;;;;5033580;28;20057;-58
2022/07/26 05:30:58;;;;;;;3.92;1.73;;;;;;;;;;5046186;28;20475;-58
2022/07/26 05:33:24;;;;;;;2.10;1.30;;;;;;;;;;5055198;28;20032;-58
2022/07/26 05:35:56;;;;;;;6.65;1.60;;;;;;;;;;5035580;28;20121;-58
2022/07/26 05:38:32;;;;;;;2.83;1.60;;;;;;;;;;5044065;28;20148;-58
2022/07/26 05:41:03;;;;;;;2.50;1.63;;;;;;;;;;5046546;28;20061;-58
2022/07/26 05:43:41;;;;;;;3.17;1.75;;;;;;;;;;5049688;28;20036;-58
2022/07/26 05:46:14;;;;;;;2.15;1.55;;;;;;;;;;5043860;28;20061;-58
2022/07/26 05:48:49;;;;;;;2.67;1.80;;;;;;;;;;5034152;28;20034;-58
2022/07/26 05:51:20;;;;;;;2.67;1.60;;;;;;;;;;5038255;28;20029;-58
2022/07/26 05:53:52;;;;;;;5.85;2.03;;;;;;;;;;5044659;28;20025;-58
2022/07/26 05:56:29;;;;;;;2.17;1.60;;;;;;;;;;5042148;28;20025;-58
2022/07/26 05:58:58;;;;;;;3.55;2.25;;;;;;;;;;5044206;28;20025;-58
2022/07/26 06:01:31;;;;;;;3.08;1.58;;;;;;;;;;5035881;28;20033;-58
2022/07/26 06:03:57;;;;;;;2.30;1.60;;;;;;;;;;5040877;28;20115;-58
2022/07/26 06:06:33;;;;;;;2.83;1.95;;;;;;;;;;5047011;28;20115;-58
2022/07/26 06:09:25;;;;;;;4.32;1.90;;;;;;;;;;5048304;28;20516;-58
2022/07/26 06:11:59;;;;;;;3.15;1.80;;;;;;;;;;5042256;28;20082;-57
2022/07/26 06:14:31;;;;;;;2.58;1.50;;;;;;;;;;5038351;28;20029;-58
2022/07/26 06:17:04;;;;;;;2.10;1.42;;;;;;;;;;5048199;28;20057;-58
2022/07/26 06:19:50;;;;;;;3.83;1.58;;;;;;;;;;5041593;28;20021;-58
2022/07/26 06:22:37;;;;;;;2.63;1.67;;;;;;;;;;5038506;28;20446;-58
2022/07/26 06:25:09;;;;;;;3.30;1.88;;;;;;;;;;5030720;28;20025;-58
2022/07/26 06:28:02;;;;;;;4.20;1.42;;;;;;;;;;5047677;28;20453;-58
2022/07/26 06:30:48;;;;;;;;;;;;;;;;;;;;;
2022/07/26 06:33:17;;;;;;;4.05;1.63;;;;;;;;;;5043762;28;20509;-58
2022/07/26 06:35:52;;;;;;;1.90;1.02;;;;;;;;;;5034010;28;20049;-58
2022/07/26 06:38:30;;;;;;;1.95;1.13;;;;;;;;;;5045243;28;20025;-58
2022/07/26 06:41:03;;;;;;;2.45;1.15;;;;;;;;;;5042988;28;20123;-58
2022/07/26 06:43:36;;;;;;;3.58;1.35;;;;;;;;;;5040859;28;20120;-58
2022/07/26 06:46:26;;;;;;;3.35;1.48;;;;;;;;;;5039522;28;20116;-58
2022/07/26 06:48:57;;;;;;;2.58;1.17;;;;;;;;;;5038832;28;20039;-58
2022/07/26 06:51:49;;;;;;;2.20;1.02;;;;;;;;;;5043629;28;20033;-58
2022/07/26 06:54:17;;;;;;;3.33;1.50;;;;;;;;;;5036523;28;20041;-58
2022/07/26 06:56:44;;;;;;;4.07;0.95;;;;;;;;;;5048371;28;20071;-58
2022/07/26 06:59:10;;;;;;;1.80;0.98;;;;;;;;;;5035894;28;20079;-58
2022/07/26 07:01:42;;;;;;;4.78;0.93;;;;;;;;;;5052222;28;20051;-58
2022/07/26 07:04:11;;;;;;;6.85;1.33;;;;;;;;;;5049183;28;20100;-58
2022/07/26 07:06:40;;;;;;;1.40;0.80;;;;;;;;;;5046803;28;20033;-58
2022/07/26 07:09:12;;;;;;;2.17;0.90;;;;;;;;;;5048252;28;20021;-58
2022/07/26 07:11:43;;;;;;;2.17;0.85;;;;;;;;;;5041049;28;20494;-58
2022/07/26 07:14:26;;;;;;;;;;;;;;;;;;5040521;28;20450;-58
2022/07/26 07:16:55;;;;;;;1.63;0.70;;;;;;;;;;5041557;28;19915;-58
2022/07/26 07:19:24;;;;;;;1.50;0.77;;;;;;;;;;5037123;28;20037;-58
2022/07/26 07:21:55;;;;;;;1.80;0.85;;;;;;;;;;5044403;28;20112;-58
2022/07/26 07:24:29;;;;;;;1.63;1.00;;;;;;;;;;5043158;28;20041;-58
2022/07/26 07:27:04;;;;;;;1.65;0.77;;;;;;;;;;5042757;28;20029;-58
2022/07/26 07:29:30;;;;;;;10.98;1.15;;;;;;;;;;5040160;28;20503;-58
2022/07/26 07:32:03;;;;;;;5.60;1.20;;;;;;;;;;5042083;28;20486;-58
2022/07/26 07:34:41;;;;;;;3.72;0.82;;;;;;;;;;5038614;28;20061;-58
2022/07/26 07:37:11;;;;;;;4.38;0.90;;;;;;;;;;5036897;28;20087;-58
2022/07/26 07:39:37;;;;;;;1.85;0.70;;;;;;;;;;5045520;28;20029;-58
2022/07/26 07:42:04;;;;;;;1.27;0.65;;;;;;;;;;5046643;28;20232;-58
2022/07/26 07:44:42;;;;;;;;;;;;;;;;;;;;;
2022/07/26 07:47:09;;;;;;;2.08;1.20;;;;;;;;;;5039974;28;20036;-58
2022/07/26 07:49:40;;;;;;;1.42;0.70;;;;;;;;;;5041182;28;20037;-58
2022/07/26 07:52:19;;;;;;;1.88;0.82;;;;;;;;;;5040145;28;20029;-58
2022/07/26 07:54:45;;;;;;;2.47;0.90;;;;;;;;;;5046533;28;20068;-58
2022/07/26 07:57:14;;;;;;;1.60;0.80;;;;;;;;;;5044686;28;20029;-58
2022/07/26 07:59:43;;;;;;;3.35;1.73;;;;;;;;;;5044832;28;20033;-58
2022/07/26 08:02:14;;;;;;;1.63;0.93;;;;;;;;;;5034815;28;20214;-58
2022/07/26 08:07:44;;;;;;;2.97;1.05;;;;;;;;;;5037488;28;20036;-58
2022/07/26 08:10:15;;;;;;;2.45;1.00;;;;;;;;;;5023474;28;20076;-58
2022/07/26 08:12:47;;;;;;;2.17;0.75;;;;;;;;;;5038792;28;20025;-58
2022/07/26 08:15:16;;;;;;;2.60;1.20;;;;;;;;;;5047376;28;20114;-58
2022/07/26 08:17:48;;;;;;;5.03;1.38;;;;;;;;;;5039051;28;20033;-58
2022/07/26 08:20:18;;;;;;;1.80;0.90;;;;;;;;;;5037746;28;20074;-58
2022/07/26 08:22:47;;;;;;;1.73;1.23;;;;;;;;;;5041696;28;20431;-58
2022/07/26 08:25:33;;;;;;;1.70;0.68;;;;;;;;;;5035694;28;20378;-58
2022/07/26 08:28:11;;;;;;;1.52;0.63;;;;;;;;;;5042883;28;20383;-58
2022/07/26 08:30:41;;;;;;;4.50;0.60;;;;;;;;;;5046389;28;20021;-58
2022/07/26 08:33:13;;;;;;;1.77;0.60;;;;;;;;;;5049553;28;20033;-58
2022/07/26 08:35:44;;;;;;;1.75;0.80;;;;;;;;;;5041409;28;20091;-58
2022/07/26 08:38:19;;;;;;;2.33;1.15;;;;;;;;;;5039430;28;20036;-58
2022/07/26 08:40:48;;;;;;;2.67;0.80;;;;;;;;;;5031704;28;20026;-59
2022/07/26 08:43:17;;;;;;;1.20;0.50;;;;;;;;;;5042349;28;20052;-59
2022/07/26 08:46:04;;;;;;;3.42;0.70;;;;;;;;;;5038348;28;20041;-59
2022/07/26 08:48:42;;;;;;;1.00;0.47;;;;;;;;;;5046666;28;20044;-58
2022/07/26 08:51:11;;;;;;;1.55;0.70;;;;;;;;;;5040767;28;20029;-59
2022/07/26 08:53:44;;;;;;;2.03;0.80;;;;;;;;;;5038771;28;20029;-59
2022/07/26 08:56:12;;;;;;;1.15;0.60;;;;;;;;;;5044844;28;20154;-59
2022/07/26 08:58:47;;;;;;;2.78;1.05;;;;;;;;;;5042718;28;20056;-59
2022/07/26 09:01:13;;;;;;;1.23;0.55;;;;;;;;;;5038112;28;20022;-58
2022/07/26 09:03:43;;;;;;;4.47;0.82;;;;;;;;;;5046225;28;20044;-58
2022/07/26 09:06:20;;;;;;;1.35;0.73;;;;;;;;;;5047024;28;20052;-59
2022/07/26 09:08:53;;;;;;;2.83;1.27;;;;;;;;;;5045597;28;20035;-58
2022/07/26 09:11:27;;;;;;;3.53;1.33;;;;;;;;;;5048201;28;20033;-59
2022/07/26 09:14:06;;;;;;;2.53;1.20;;;;;;;;;;5051919;28;20534;-58
2022/07/26 09:16:44;;;;;;;1.63;0.77;;;;;;;;;;5040904;28;20034;-59
2022/07/26 09:19:22;;;;;;;1.60;0.80;;;;;;;;;;5046324;28;20096;-59
2022/07/26 09:21:59;;;;;;;1.92;0.82;;;;;;;;;;5041479;28;20375;-59
2022/07/26 09:24:44;;;;;;;1.60;0.85;;;;;;;;;;5054313;28;20021;-59
2022/07/26 09:27:14;;;;;;;1.25;0.52;;;;;;;;;;5046695;28;20032;-59
2022/07/26 09:29:42;;;;;;;;;;;;;;;;;;5048122;28;20017;-59
2022/07/26 09:32:38;;;;;;;1.65;0.77;;;;;;;;;;5041769;28;20282;-59
2022/07/26 09:35:20;;;;;;;4.10;1.98;;;;;;;;;;5047134;28;20487;-59
2022/07/26 09:37:49;;;;;;;3.85;0.88;;;;;;;;;;5047050;28;20120;-58
2022/07/26 09:40:25;;;;;;;1.85;0.47;;;;;;;;;;5038284;28;20539;-59
2022/07/26 09:43:21;;;;;;;1.73;0.70;;;;;;;;;;5036568;28;20427;-59
2022/07/26 09:46:01;;;;;;;1.65;0.75;;;;;;;;;;5043896;28;20045;-59
2022/07/26 09:48:31;;;;;;;1.17;0.52;;;;;;;;;;5043025;28;20028;-59
2022/07/26 09:51:04;;;;;;;0.95;0.55;;;;;;;;;;5043067;28;20352;-59
2022/07/26 09:53:37;;;;;;;1.88;0.60;;;;;;;;;;5050072;28;20383;-59
2022/07/26 09:56:06;;;;;;;0.98;0.40;;;;;;;;;;5048834;28;20026;-58
2022/07/26 09:58:35;;;;;;;1.73;0.80;;;;;;;;;;5036620;28;20067;-59
2022/07/26 10:01:08;;;;;;;1.17;0.50;;;;;;;;;;5040941;28;20032;-59
2022/07/26 10:03:40;;;;;;;1.63;1.00;;;;;;;;;;5036529;28;20352;-58
2022/07/26 10:09:07;;;;;;;1.73;0.50;;;;;;;;;;5049204;28;20021;-58
2022/07/26 10:11:54;;;;;;;4.22;1.17;;;;;;;;;;5043245;28;20102;-59
2022/07/26 10:14:33;;;;;;;2.92;0.90;;;;;;;;;;5047190;28;20024;-59
2022/07/26 10:17:00;;;;;;;1.17;0.68;;;;;;;;;;5046100;28;20021;-59
2022/07/26 10:19:49;;;;;;;3.75;0.60;;;;;;;;;;5047450;28;20028;-58
2022/07/26 10:25:23;;;;;;;1.33;0.63;;;;;;;;;;5046289;28;20366;-59
2022/07/26 10:27:57;;;;;;;0.80;0.40;;;;;;;;;;5047808;28;20939;-59
2022/07/26 10:30:24;;;;;;;1.80;0.93;;;;;;;;;;5042619;28;20029;-59
2022/07/26 10:32:59;;;;;;;1.88;0.77;;;;;;;;;;5042082;28;20094;-59
2022/07/26 10:35:42;;;;;;;1.40;0.70;;;;;;;;;;5052236;28;20055;-59
2022/07/26 10:38:31;;;;;;;2.47;0.85;;;;;;;;;;5046205;28;20062;-59
2022/07/26 10:41:06;;;;;;;2.40;0.65;;;;;;;;;;5042444;28;20032;-59
2022/07/26 10:43:38;;;;;;;2.63;0.75;;;;;;;;;;5043316;28;20049;-59
2022/07/26 10:46:30;;;;;;;2.33;0.80;;;;;;;;;;5044808;28;20029;-59
2022/07/26 10:49:11;;;;;;;1.80;0.80;;;;;;;;;;5032877;28;20037;-59
2022/07/26 10:51:39;;;;;;;;;;;;;;;;;;5033991;28;20014;-59
2022/07/26 10:54:15;;;;;;;1.63;0.50;;;;;;;;;;5033406;28;20428;-59
2022/07/26 10:56:51;;;;;;;2.00;0.90;;;;;;;;;;5033621;28;20029;-59
2022/07/26 10:59:40;;;;;;;1.50;0.73;;;;;;;;;;5032358;28;20112;-59
2022/07/26 11:02:25;;;;;;;1.13;0.45;;;;;;;;;;5037951;28;20028;-59
2022/07/26 11:05:00;;;;;;;3.42;0.50;;;;;;;;;;5032511;28;20104;-59
2022/07/26 11:07:32;;;;;;;3.08;0.70;;;;;;;;;;5033579;28;20106;-59
2022/07/26 11:10:08;;;;;;;1.52;0.57;;;;;;;;;;5032116;28;20080;-59
2022/07/26 11:12:37;;;;;;;1.40;0.50;;;;;;;;;;5025114;28;20029;-59
2022/07/26 11:15:17;;;;;;;0.70;0.30;;;;;;;;;;5030490;28;20038;-59
2022/07/26 11:17:46;;;;;;;1.42;0.47;;;;;;;;;;5048713;28;20087;-59
2022/07/26 11:20:23;;;;;;;1.20;0.50;;;;;;;;;;5032444;28;20026;-58
2022/07/26 11:22:50;;;;;;;1.25;0.60;;;;;;;;;;5040527;28;20033;-59
2022/07/26 11:25:26;;;;;;;2.10;0.77;;;;;;;;;;5052296;28;20029;-59
2022/07/26 11:28:04;;;;;;;1.90;0.80;;;;;;;;;;5052114;28;20378;-59
2022/07/26 11:30:37;;;;;;;1.40;0.70;;;;;;;;;;5050449;28;20025;-59
2022/07/26 11:33:06;;;;;;;2.40;0.88;;;;;;;;;;5048461;28;20378;-58
2022/07/26 11:35:37;;;;;;;1.10;0.50;;;;;;;;;;5041153;28;20414;-59
2022/07/26 11:38:10;;;;;;;0.98;0.50;;;;;;;;;;5051426;28;20387;-58
2022/07/26 11:40:52;;;;;;;1.13;0.40;;;;;;;;;;5051431;28;20033;-58
2022/07/26 11:43:23;;;;;;;1.38;0.60;;;;;;;;;;5052773;28;20061;-58
2022/07/26 11:46:04;;;;;;;1.95;0.75;;;;;;;;;;5051161;28;20119;-59
2022/07/26 11:48:38;;;;;;;1.98;0.95;;;;;;;;;;5052910;28;20063;-58
2022/07/26 11:51:18;;;;;;;1.33;0.75;;;;;;;;;;5050269;28;20025;-59
2022/07/26 11:53:44;;;;;;;;;;;;;;;;;;5052889;28;20360;-58
2022/07/26 11:56:25;;;;;;;2.17;0.70;;;;;;;;;;5050094;28;19950;-59
2022/07/26 11:59:05;;;;;;;1.00;0.30;;;;;;;;;;5052690;28;20025;-58
2022/07/26 12:01:35;;;;;;;0.75;0.30;;;;;;;;;;5051790;28;20474;-58
2022/07/26 12:04:01;;;;;;;1.10;0.60;;;;;;;;;;5052672;28;20036;-59
2022/07/26 12:06:30;;;;;;;1.60;0.63;;;;;;;;;;5050828;28;20033;-59
2022/07/26 12:09:01;;;;;;;1.38;0.65;;;;;;;;;;5051964;28;20520;-59
2022/07/26 12:11:46;;;;;;;0.82;0.32;;;;;;;;;;5050301;28;20032;-59
2022/07/26 12:14:27;;;;;;;1.23;0.55;;;;;;;;;;5040056;28;20483;-58
2022/07/26 12:16:58;;;;;;;1.20;0.75;;;;;;;;;;5032172;28;20036;-58
2022/07/26 12:19:28;;;;;;;1.52;0.70;;;;;;;;;;5031878;28;20018;-58
2022/07/26 12:22:10;;;;;;;3.72;1.00;;;;;;;;;;5030277;28;20371;-59
2022/07/26 12:24:47;;;;;;;1.52;0.85;;;;;;;;;;5031958;28;20463;-59
2022/07/26 12:27:34;;;;;;;2.15;0.75;;;;;;;;;;5031812;28;20575;-58
2022/07/26 12:30:04;;;;;;;1.00;0.30;;;;;;;;;;5030022;28;20030;-58
2022/07/26 12:32:34;;;;;;;1.65;0.57;;;;;;;;;;5031835;28;20057;-58
2022/07/26 12:35:00;;;;;;;;;;;;;;;;;;5032376;28;20028;-59
2022/07/26 12:37:36;;;;;;;1.25;0.40;;;;;;;;;;5030044;28;19955;-59
2022/07/26 12:40:15;;;;;;;4.20;0.73;;;;;;;;;;5030904;28;20030;-59
2022/07/26 12:42:53;;;;;;;1.95;0.75;;;;;;;;;;5030472;28;20379;-58
2022/07/26 12:45:21;;;;;;;0.70;0.40;;;;;;;;;;5031868;28;20033;-59
2022/07/26 12:47:54;;;;;;;1.23;0.52;;;;;;;;;;5014014;28;20120;-59
2022/07/26 12:50:26;;;;;;;1.08;0.52;;;;;;;;;;5030805;28;20014;-59
2022/07/26 12:53:03;;;;;;;1.73;0.80;;;;;;;;;;5030590;28;20025;-59
2022/07/26 12:55:30;;;;;;;1.75;0.60;;;;;;;;;;5032031;28;20383;-59
2022/07/26 12:58:02;;;;;;;1.40;0.82;;;;;;;;;;5030122;28;20055;-59
2022/07/26 13:00:37;;;;;;;1.55;0.60;;;;;;;;;;5030897;28;20104;-59
2022/07/26 13:03:18;;;;;;;1.20;0.50;;;;;;;;;;5031664;28;20152;-59
2022/07/26 13:05:49;;;;;;;1.23;0.60;;;;;;;;;;5031744;28;20117;-59
2022/07/26 13:08:15;;;;;;;1.33;0.60;;;;;;;;;;5031648;28;20024;-59
2022/07/26 13:10:42;;;;;;;0.95;0.38;;;;;;;;;;5029394;28;20021;-59
2022/07/26 13:13:44;;;;;;;1.42;0.50;;;;;;;;;;5033356;28;20045;-59
2022/07/26 13:16:13;;;;;;;1.00;0.70;;;;;;;;;;5051306;28;20025;-59
2022/07/26 13:18:40;;;;;;;2.33;0.50;;;;;;;;;;5050037;28;20021;-59
2022/07/26 13:21:06;;;;;;;0.70;0.40;;;;;;;;;;5050376;28;20024;-60
2022/07/26 13:23:39;;;;;;;4.05;0.65;;;;;;;;;;5051317;28;20356;-59
2022/07/26 13:26:06;;;;;;;1.00;0.50;;;;;;;;;;5049970;28;20033;-59
2022/07/26 13:28:32;;;;;;;1.75;0.45;;;;;;;;;;5051415;28;20021;-59
2022/07/26 13:31:01;;;;;;;2.10;0.65;;;;;;;;;;5049211;28;20044;-60
2022/07/26 13:33:36;;;;;;;1.20;0.32;;;;;;;;;;5051216;28;20033;-59
2022/07/26 13:36:03;;;;;;;0.52;0.20;;;;;;;;;;5051336;28;20021;-59
2022/07/26 13:38:32;;;;;;;2.05;0.85;;;;;;;;;;5050938;28;20036;-59
2022/07/26 13:41:01;;;;;;;0.85;0.32;;;;;;;;;;5050070;28;20036;-59
2022/07/26 13:43:30;;;;;;;2.50;1.10;;;;;;;;;;5051285;28;20029;-59
2022/07/26 13:46:00;;;;;;;1.73;1.33;;;;;;;;;;5049984;28;20433;-59
2022/07/26 13:48:27;;;;;;;2.08;0.63;;;;;;;;;;5052094;28;20115;-59
2022/07/26 13:50:58;;;;;;;1.90;0.70;;;;;;;;;;5052394;28;20025;-59
2022/07/26 13:53:24;;;;;;;0.65;0.40;;;;;;;;;;5055022;28;20058;-59
2022/07/26 13:55:50;;;;;;;1.67;0.63;;;;;;;;;;5054547;28;20033;-59
2022/07/26 13:58:22;;;;;;;0.68;0.30;;;;;;;;;;5054871;28;20033;-59
2022/07/26 14:00:48;;;;;;;1.27;0.50;;;;;;;;;;5053912;28;20368;-59
2022/07/26 14:03:23;;;;;;;0.88;0.43;;;;;;;;;;5054539;28;20029;-59
2022/07/26 14:06:09;;;;;;;0.88;0.40;;;;;;;;;;5054267;28;20102;-59
2022/07/26 14:08:37;;;;;;;1.42;0.47;;;;;;;;;;5055012;28;20017;-59
2022/07/26 14:11:08;;;;;;;1.33;0.70;;;;;;;;;;5053577;28;20032;-59
2022/07/26 14:13:37;;;;;;;1.05;0.50;;;;;;;;;;5048913;28;20025;-59
2022/07/26 14:16:03;;;;;;;0.98;0.38;;;;;;;;;;5034104;28;20038;-59
2022/07/26 14:18:35;;;;;;;0.95;0.50;;;;;;;;;;5033105;28;20450;-59
2022/07/26 14:21:08;;;;;;;0.57;0.28;;;;;;;;;;5033652;28;20411;-59
2022/07/26 14:23:37;;;;;;;1.42;0.57;;;;;;;;;;5034409;28;20026;-60
2022/07/26 14:26:04;;;;;;;1.88;0.73;;;;;;;;;;5033984;28;20061;-59
2022/07/26 14:28:32;;;;;;;1.23;0.50;;;;;;;;;;5034099;28;20017;-59
2022/07/26 14:31:09;;;;;;;2.63;0.60;;;;;;;;;;5032204;28;20021;-59
2022/07/26 14:33:42;;;;;;;2.17;0.80;;;;;;;;;;5033171;28;20086;-59
2022/07/26 14:36:14;;;;;;;0.95;0.40;;;;;;;;;;5034062;28;20493;-59
2022/07/26 14:38:48;;;;;;;3.17;0.70;;;;;;;;;;5034721;28;20026;-59
2022/07/26 14:41:15;;;;;;;1.95;0.52;;;;;;;;;;5033105;28;20029;-59
2022/07/26 14:43:47;;;;;;;1.33;0.50;;;;;;;;;;5034252;28;20348;-59
2022/07/26 14:46:13;;;;;;;1.88;0.43;;;;;;;;;;5033470;28;20041;-59
2022/07/26 14:48:42;;;;;;;2.08;0.57;;;;;;;;;;5033928;28;20033;-59
2022/07/26 14:51:09;;;;;;;1.40;0.40;;;;;;;;;;5032912;28;20032;-59
2022/07/26 14:53:42;;;;;;;0.43;0.20;;;;;;;;;;5032269;28;20027;-58
2022/07/26 14:56:11;;;;;;;1.52;0.70;;;;;;;;;;5033586;28;20459;-59
2022/07/26 14:58:38;;;;;;;0.57;0.32;;;;;;;;;;5032019;28;20119;-59
2022/07/26 15:01:04;;;;;;;0.57;0.28;;;;;;;;;;5031168;28;20033;-59
2022/07/26 15:03:37;;;;;;;1.10;0.60;;;;;;;;;;5032347;28;20022;-59
2022/07/26 15:06:06;;;;;;;1.70;0.65;;;;;;;;;;5031989;28;20505;-59
2022/07/26 15:08:35;;;;;;;1.50;0.57;;;;;;;;;;5016403;28;20034;-59
2022/07/26 15:11:04;;;;;;;1.30;0.50;;;;;;;;;;5032444;28;20116;-59
2022/07/26 15:13:35;;;;;;;0.98;0.47;;;;;;;;;;5020862;28;20025;-59
2022/07/26 15:16:07;;;;;;;1.35;0.50;;;;;;;;;;5053215;28;20029;-59
2022/07/26 15:18:33;;;;;;;1.58;0.65;;;;;;;;;;5053211;28;20025;-59
2022/07/26 15:20:59;;;;;;;0.88;0.30;;;;;;;;;;5052338;28;20025;-59
2022/07/26 15:23:28;;;;;;;1.20;0.60;;;;;;;;;;5051777;28;20055;-59
2022/07/26 15:25:55;;;;;;;1.17;0.40;;;;;;;;;;5051520;28;20449;-59
2022/07/26 15:28:21;;;;;;;1.27;0.70;;;;;;;;;;5053144;28;20417;-59
2022/07/26 15:30:50;;;;;;;1.27;0.45;;;;;;;;;;5050895;28;20025;-59
2022/07/26 15:33:19;;;;;;;1.08;0.52;;;;;;;;;;5051624;28;20032;-59
2022/07/26 15:35:48;;;;;;;1.00;0.40;;;;;;;;;;5035286;28;20398;-59
2022/07/26 15:38:14;;;;;;;0.82;0.40;;;;;;;;;;5051476;28;20116;-59
2022/07/26 15:40:40;;;;;;;1.80;0.40;;;;;;;;;;5052070;28;20285;-59